createdAt,value
2018-05-26T00:00:45.224Z,14.83
2018-05-26T00:03:11.511Z,13.03
2018-05-26T00:05:37.872Z,15.40
2018-05-26T00:08:04.184Z,14.23
2018-05-26T00:10:30.467Z,12.93
2018-05-26T00:12:56.780Z,12.10
2018-05-26T00:15:23.110Z,15.73
2018-05-26T00:17:49.604Z,17.70
2018-05-26T00:20:16.737Z,14.47
2018-05-26T00:22:49.133Z,20.23
2018-05-26T00:25:15.454Z,14.40
2018-05-26T00:27:41.772Z,15.00
2018-05-26T00:30:08.219Z,14.23
2018-05-26T00:32:34.712Z,12.93
2018-05-26T00:35:01.256Z,13.70
2018-05-26T00:37:27.508Z,16.30
2018-05-26T00:39:53.897Z,13.37
2018-05-26T00:42:20.363Z,17.70
2018-05-26T00:44:46.789Z,13.83
2018-05-26T00:47:13.129Z,15.77
2018-05-26T00:49:40.208Z,12.00
2018-05-26T00:52:06.473Z,15.70
2018-05-26T00:54:32.802Z,17.77
2018-05-26T00:56:59.515Z,15.37
2018-05-26T00:59:25.940Z,14.03
2018-05-26T01:01:52.167Z,14.37
2018-05-26T01:04:18.471Z,19.87
2018-05-26T01:06:46.798Z,17.93
2018-05-26T01:09:13.059Z,16.57
2018-05-26T01:11:39.915Z,17.37
2018-05-26T01:14:06.297Z,18.57
2018-05-26T01:16:38.330Z,17.50
2018-05-26T01:19:04.644Z,17.40
2018-05-26T01:21:30.977Z,16.47
2018-05-26T01:23:57.340Z,19.00
2018-05-26T01:26:24.980Z,19.40
2018-05-26T01:28:51.475Z,20.77
2018-05-26T01:31:17.861Z,23.67
2018-05-26T01:33:44.156Z,15.87
2018-05-26T01:36:10.496Z,19.70
2018-05-26T01:38:36.770Z,16.47
2018-05-26T01:41:03.049Z,17.63
2018-05-26T01:43:29.478Z,19.87
2018-05-26T01:45:55.825Z,14.50
2018-05-26T01:48:23.162Z,15.23
2018-05-26T01:50:49.513Z,20.53
2018-05-26T01:53:15.824Z,14.47
2018-05-26T01:55:42.154Z,21.23
2018-05-26T01:58:08.471Z,19.27
2018-05-26T02:00:34.835Z,15.00
2018-05-26T02:03:01.084Z,13.63
2018-05-26T02:05:30.771Z,15.37
2018-05-26T02:07:57.248Z,21.40
2018-05-26T02:10:23.548Z,15.30
2018-05-26T02:12:49.899Z,15.10
2018-05-26T02:15:19.129Z,21.40
2018-05-26T02:17:45.370Z,15.90
2018-05-26T02:20:12.519Z,18.10
2018-05-26T02:22:39.481Z,22.17
2018-05-26T02:25:05.847Z,15.57
2018-05-26T02:27:32.270Z,21.67
2018-05-26T02:29:58.952Z,19.10
2018-05-26T02:32:25.213Z,16.53
2018-05-26T02:34:51.628Z,15.13
2018-05-26T02:37:17.986Z,14.93
2018-05-26T02:39:44.960Z,15.43
2018-05-26T02:42:11.224Z,15.10
2018-05-26T02:44:37.634Z,17.33
2018-05-26T02:47:03.909Z,19.90
2018-05-26T02:49:30.140Z,33.63
2018-05-26T02:51:56.444Z,16.87
2018-05-26T02:54:22.754Z,20.97
2018-05-26T02:56:49.807Z,20.07
2018-05-26T02:59:16.034Z,20.23
2018-05-26T03:01:42.313Z,21.60
2018-05-26T03:04:09.231Z,23.50
2018-05-26T03:06:41.563Z,19.20
2018-05-26T03:09:13.960Z,25.30
2018-05-26T03:11:46.407Z,22.60
2018-05-26T03:14:18.789Z,17.07
2018-05-26T03:16:48.025Z,19.70
2018-05-26T03:19:14.338Z,16.30
2018-05-26T03:21:40.578Z,28.37
2018-05-26T03:24:07.012Z,25.43
2018-05-26T03:26:33.275Z,17.70
2018-05-26T03:28:59.530Z,17.97
2018-05-26T03:31:25.837Z,17.73
2018-05-26T03:33:52.218Z,18.33
2018-05-26T03:36:18.726Z,23.93
2018-05-26T03:38:45.059Z,21.97
2018-05-26T03:41:11.391Z,22.23
2018-05-26T03:43:37.640Z,20.53
2018-05-26T03:46:03.928Z,18.13
2018-05-26T03:48:30.211Z,18.47
2018-05-26T03:50:56.782Z,22.63
2018-05-26T03:53:23.076Z,17.40
2018-05-26T03:56:02.551Z,20.37
2018-05-26T03:58:41.037Z,21.43
2018-05-26T04:01:07.358Z,21.07
2018-05-26T04:03:33.683Z,19.30
2018-05-26T04:06:00.035Z,28.13
2018-05-26T04:08:26.413Z,17.07
2018-05-26T04:10:52.969Z,19.60
2018-05-26T04:13:19.233Z,17.30
2018-05-26T04:15:45.473Z,18.53
2018-05-26T04:18:11.814Z,25.70
2018-05-26T04:20:38.060Z,18.23
2018-05-26T04:23:04.764Z,22.87
2018-05-26T04:25:31.755Z,19.23
2018-05-26T04:27:58.141Z,19.63
2018-05-26T04:30:24.376Z,25.67
2018-05-26T04:32:50.980Z,26.03
2018-05-26T04:35:17.471Z,22.40
2018-05-26T04:37:43.718Z,18.23
2018-05-26T04:40:13.940Z,20.73
2018-05-26T04:42:42.449Z,21.53
2018-05-26T04:45:09.067Z,27.73
2018-05-26T04:47:36.189Z,19.93
2018-05-26T04:50:02.543Z,19.50
2018-05-26T04:52:28.788Z,16.30
2018-05-26T04:54:55.681Z,17.83
2018-05-26T04:57:22.292Z,22.67
2018-05-26T04:59:48.576Z,22.50
2018-05-26T05:02:16.112Z,16.63
2018-05-26T05:04:42.355Z,18.70
2018-05-26T05:07:08.650Z,20.73
2018-05-26T05:09:36.390Z,17.67
2018-05-26T05:12:02.679Z,17.93
2018-05-26T05:14:28.930Z,16.80
2018-05-26T05:16:55.446Z,16.13
2018-05-26T05:19:21.765Z,19.20
2018-05-26T05:21:48.095Z,18.23
2018-05-26T05:24:14.458Z,19.80
2018-05-26T05:26:41.407Z,17.77
2018-05-26T05:29:07.922Z,16.57
2018-05-26T05:31:34.634Z,14.97
2018-05-26T05:34:00.925Z,18.13
2018-05-26T05:36:27.868Z,18.07
2018-05-26T05:38:55.030Z,14.23
2018-05-26T05:41:22.288Z,13.90
2018-05-26T05:43:49.578Z,14.43
2018-05-26T05:46:16.133Z,17.93
2018-05-26T05:48:42.894Z,14.50
2018-05-26T05:51:09.118Z,20.10
2018-05-26T05:53:35.365Z,18.80
2018-05-26T05:56:01.605Z,14.40
2018-05-26T05:58:27.847Z,16.40
2018-05-26T06:00:54.053Z,14.00
2018-05-26T06:03:20.285Z,12.53
2018-05-26T06:05:46.712Z,18.50
2018-05-26T06:08:13.846Z,24.83
2018-05-26T06:10:40.266Z,16.20
2018-05-26T06:13:06.524Z,18.33
2018-05-26T06:15:32.926Z,18.70
2018-05-26T06:17:59.227Z,13.50
2018-05-26T06:20:25.467Z,13.50
2018-05-26T06:22:51.796Z,14.40
2018-05-26T06:25:18.114Z,17.00
2018-05-26T06:27:44.418Z,13.80
2018-05-26T06:30:10.979Z,13.30
2018-05-26T06:32:37.748Z,13.77
2018-05-26T06:35:04.233Z,14.83
2018-05-26T06:37:30.508Z,13.20
2018-05-26T06:39:57.199Z,14.20
2018-05-26T06:42:25.378Z,14.87
2018-05-26T06:44:52.119Z,13.60
2018-05-26T06:47:18.448Z,13.30
2018-05-26T06:49:45.223Z,17.93
2018-05-26T06:52:12.151Z,12.90
2018-05-26T06:54:38.910Z,13.50
2018-05-26T06:57:05.210Z,12.47
2018-05-26T06:59:31.645Z,13.93
2018-05-26T07:01:58.085Z,14.43
2018-05-26T07:04:25.825Z,18.07
2018-05-26T07:06:52.394Z,19.30
2018-05-26T07:09:18.903Z,13.03
2018-05-26T07:11:45.213Z,15.10
2018-05-26T07:14:11.859Z,21.93
2018-05-26T07:16:38.476Z,23.40
2018-05-26T07:19:14.088Z,16.30
2018-05-26T07:21:41.871Z,12.40
2018-05-26T07:24:09.336Z,15.17
2018-05-26T07:26:35.867Z,13.87
2018-05-26T07:29:02.356Z,18.33
2018-05-26T07:31:28.725Z,30.47
2018-05-26T07:33:55.773Z,14.17
2018-05-26T07:36:22.939Z,18.50
2018-05-26T07:38:49.390Z,20.87
2018-05-26T07:41:15.959Z,15.27
2018-05-26T07:43:42.400Z,13.37
2018-05-26T07:46:09.009Z,18.70
2018-05-26T07:48:35.421Z,14.20
2018-05-26T07:51:02.341Z,16.57
2018-05-26T07:53:28.671Z,14.60
2018-05-26T07:55:55.901Z,15.20
2018-05-26T07:58:22.260Z,18.63
2018-05-26T08:00:48.516Z,15.90
2018-05-26T08:03:15.010Z,15.20
2018-05-26T08:05:41.575Z,17.43
2018-05-26T08:08:07.861Z,13.47
2018-05-26T08:10:36.397Z,12.83
2018-05-26T08:13:02.728Z,16.60
2018-05-26T08:15:28.943Z,15.27
2018-05-26T08:17:55.461Z,16.83
2018-05-26T08:20:21.757Z,16.07
2018-05-26T08:22:48.014Z,12.53
2018-05-26T08:25:15.179Z,19.77
2018-05-26T08:27:41.799Z,16.50
2018-05-26T08:30:08.170Z,23.37
2018-05-26T08:32:34.398Z,19.60
2018-05-26T08:35:00.654Z,16.20
2018-05-26T08:37:27.163Z,18.73
2018-05-26T08:39:58.542Z,33.20
2018-05-26T08:42:24.987Z,17.07
2018-05-26T08:44:56.269Z,10.73
2018-05-26T08:47:22.704Z,12.43
2018-05-26T08:49:49.776Z,22.03
2018-05-26T08:52:17.043Z,14.57
2018-05-26T08:54:43.287Z,10.20
2018-05-26T08:57:09.583Z,13.50
2018-05-26T08:59:37.104Z,21.00
2018-05-26T09:02:04.387Z,11.10
2018-05-26T09:04:30.724Z,9.33
2018-05-26T09:06:57.140Z,15.17
2018-05-26T09:09:23.452Z,8.90
2018-05-26T09:11:50.483Z,9.17
2018-05-26T09:14:16.699Z,8.80
2018-05-26T09:16:42.989Z,10.43
2018-05-26T09:19:10.005Z,7.80
2018-05-26T09:21:36.336Z,19.20
2018-05-26T09:24:02.571Z,17.33
2018-05-26T09:26:28.884Z,13.00
2018-05-26T09:28:55.175Z,10.13
2018-05-26T09:31:21.526Z,10.47
2018-05-26T09:33:47.779Z,8.30
2018-05-26T09:36:14.152Z,13.27
2018-05-26T09:38:41.091Z,11.47
2018-05-26T09:41:07.477Z,12.60
2018-05-26T09:43:33.731Z,8.90
2018-05-26T09:45:59.999Z,8.10
2018-05-26T09:48:26.254Z,11.63
2018-05-26T09:50:53.475Z,7.87
2018-05-26T09:53:19.715Z,11.90
2018-05-26T09:55:46.043Z,10.70
2018-05-26T09:58:12.244Z,9.43
2018-05-26T10:00:38.567Z,8.87
2018-05-26T10:03:04.789Z,13.50
2018-05-26T10:05:31.093Z,8.30
2018-05-26T10:07:57.506Z,7.90
2018-05-26T10:10:23.994Z,8.87
2018-05-26T10:12:51.090Z,9.27
2018-05-26T10:15:17.831Z,8.60
2018-05-26T10:17:44.099Z,9.03
2018-05-26T10:20:10.326Z,6.97
2018-05-26T10:22:36.561Z,9.13
2018-05-26T10:25:02.896Z,8.33
2018-05-26T10:27:29.168Z,14.23
2018-05-26T10:29:55.558Z,7.70
2018-05-26T10:32:22.045Z,7.20
2018-05-26T10:34:48.281Z,7.23
2018-05-26T10:37:14.671Z,7.80
2018-05-26T10:39:40.948Z,6.43
2018-05-26T10:42:07.199Z,9.30
2018-05-26T10:44:33.452Z,7.00
2018-05-26T10:46:59.836Z,8.43
2018-05-26T10:49:26.168Z,8.20
2018-05-26T10:51:52.434Z,6.03
2018-05-26T10:54:18.651Z,5.40
2018-05-26T10:56:44.878Z,4.57
2018-05-26T10:59:11.148Z,15.33
2018-05-26T11:01:37.620Z,8.50
2018-05-26T11:04:04.080Z,15.30
2018-05-26T11:06:42.387Z,5.97
2018-05-26T11:09:09.439Z,13.53
2018-05-26T11:11:36.022Z,10.43
2018-05-26T11:14:02.324Z,7.97
2018-05-26T11:16:28.639Z,7.70
2018-05-26T11:18:54.910Z,6.23
2018-05-26T11:21:21.128Z,29.53
2018-05-26T11:23:48.109Z,8.40
2018-05-26T11:26:14.581Z,5.53
2018-05-26T11:28:42.069Z,7.63
2018-05-26T11:31:08.358Z,5.93
2018-05-26T11:33:34.998Z,5.70
2018-05-26T11:36:01.298Z,5.97
2018-05-26T11:38:27.547Z,5.80
2018-05-26T11:40:53.833Z,5.33
2018-05-26T11:43:20.116Z,7.37
2018-05-26T11:45:46.347Z,6.90
2018-05-26T11:48:14.862Z,11.73
2018-05-26T11:50:41.181Z,5.90
2018-05-26T11:53:09.009Z,6.73
2018-05-26T11:55:35.311Z,6.30
2018-05-26T11:58:02.794Z,6.23
2018-05-26T12:00:29.088Z,4.53
2018-05-26T12:02:55.571Z,5.97
2018-05-26T12:05:21.843Z,4.30
2018-05-26T12:07:48.139Z,6.10
2018-05-26T12:10:15.114Z,4.57
2018-05-26T12:12:41.367Z,10.27
2018-05-26T12:15:08.617Z,4.80
2018-05-26T12:17:34.850Z,5.03
2018-05-26T12:20:14.532Z,4.50
2018-05-26T12:22:40.900Z,5.27
2018-05-26T12:25:07.179Z,12.63
2018-05-26T12:27:33.498Z,5.47
2018-05-26T12:29:59.986Z,6.27
2018-05-26T12:32:27.065Z,7.77
2018-05-26T12:34:53.299Z,5.80
2018-05-26T12:37:19.572Z,4.43
2018-05-26T12:39:45.827Z,5.20
2018-05-26T12:42:12.097Z,5.67
2018-05-26T12:44:38.342Z,4.43
2018-05-26T12:47:04.635Z,3.73
2018-05-26T12:49:31.059Z,6.13
2018-05-26T12:51:57.319Z,4.63
2018-05-26T12:54:23.592Z,5.40
2018-05-26T12:56:50.061Z,6.17
2018-05-26T12:59:16.477Z,6.00
2018-05-26T13:01:43.073Z,3.70
2018-05-26T13:04:11.824Z,3.90
2018-05-26T13:06:38.361Z,4.20
2018-05-26T13:09:04.682Z,10.00
2018-05-26T13:11:30.940Z,4.40
2018-05-26T13:13:58.452Z,4.40
2018-05-26T13:16:26.113Z,5.07
2018-05-26T13:18:52.566Z,11.60
2018-05-26T13:21:18.896Z,5.13
2018-05-26T13:23:45.443Z,6.90
2018-05-26T13:26:11.724Z,4.50
2018-05-26T13:28:37.978Z,4.70
2018-05-26T13:31:04.264Z,4.20
2018-05-26T13:33:30.543Z,4.10
2018-05-26T13:35:57.354Z,4.40
2018-05-26T13:38:23.643Z,4.70
2018-05-26T13:40:49.906Z,4.20
2018-05-26T13:43:18.852Z,4.90
2018-05-26T13:45:45.903Z,3.87
2018-05-26T13:48:12.451Z,4.37
2018-05-26T13:50:38.926Z,4.33
2018-05-26T13:53:05.420Z,4.33
2018-05-26T13:55:31.676Z,9.83
2018-05-26T13:57:57.946Z,4.07
2018-05-26T14:00:24.448Z,4.47
2018-05-26T14:02:50.701Z,4.33
2018-05-26T14:05:16.996Z,5.03
2018-05-26T14:07:43.272Z,4.40
2018-05-26T14:10:10.611Z,8.83
2018-05-26T14:12:37.689Z,7.73
2018-05-26T14:15:04.712Z,5.57
2018-05-26T14:17:30.973Z,5.10
2018-05-26T14:19:57.455Z,6.80
2018-05-26T14:22:23.836Z,8.23
2018-05-26T14:24:50.120Z,4.23
2018-05-26T14:27:17.431Z,5.00
2018-05-26T14:29:43.727Z,7.13
2018-05-26T14:32:10.046Z,6.10
2018-05-26T14:34:36.517Z,5.53
2018-05-26T14:37:02.764Z,5.13
2018-05-26T14:39:28.999Z,4.47
2018-05-26T14:41:55.393Z,5.10
2018-05-26T14:44:22.446Z,4.50
2018-05-26T14:46:48.666Z,5.60
2018-05-26T14:49:14.960Z,5.03
2018-05-26T14:51:42.162Z,5.93
2018-05-26T14:54:08.474Z,4.37
2018-05-26T14:56:34.808Z,4.67
2018-05-26T14:59:01.074Z,6.37
2018-05-26T15:01:28.108Z,11.53
2018-05-26T15:03:54.493Z,8.30
2018-05-26T15:06:21.463Z,5.60
2018-05-26T15:08:47.793Z,7.10
2018-05-26T15:11:15.164Z,4.53
2018-05-26T15:13:41.407Z,7.40
2018-05-26T15:16:07.804Z,5.27
2018-05-26T15:18:34.024Z,5.53
2018-05-26T15:21:00.765Z,6.37
2018-05-26T15:23:26.986Z,5.50
2018-05-26T15:25:53.270Z,6.07
2018-05-26T15:28:20.844Z,7.73
2018-05-26T15:30:47.109Z,4.77
2018-05-26T15:33:13.332Z,5.67
2018-05-26T15:35:40.065Z,6.07
2018-05-26T15:38:06.326Z,5.40
2018-05-26T15:40:32.616Z,5.27
2018-05-26T15:42:59.617Z,5.37
2018-05-26T15:45:26.075Z,5.00
2018-05-26T15:47:52.459Z,4.87
2018-05-26T15:50:20.813Z,4.83
2018-05-26T15:52:48.372Z,9.30
2018-05-26T15:57:49.740Z,5.33
2018-05-26T16:00:16.076Z,4.97
2018-05-26T16:02:42.419Z,5.30
2018-05-26T16:05:08.744Z,4.63
2018-05-26T16:07:35.069Z,5.20
2018-05-26T16:10:01.439Z,9.20
2018-05-26T16:12:27.660Z,6.70
2018-05-26T16:14:53.892Z,6.40
2018-05-26T16:17:20.115Z,9.10
2018-05-26T16:19:46.315Z,5.33
2018-05-26T16:22:13.550Z,5.63
2018-05-26T16:24:39.794Z,5.73
2018-05-26T16:27:06.416Z,6.70
2018-05-26T16:29:35.359Z,4.80
2018-05-26T16:32:01.781Z,7.50
2018-05-26T16:34:28.069Z,7.20
2018-05-26T16:36:54.378Z,5.90
2018-05-26T16:39:20.632Z,6.33
2018-05-26T16:41:46.959Z,10.93
2018-05-26T16:44:13.298Z,7.60
2018-05-26T16:46:40.315Z,5.50
2018-05-26T16:49:06.588Z,9.17
2018-05-26T16:51:32.863Z,4.97
2018-05-26T16:53:59.322Z,6.30
2018-05-26T16:56:25.609Z,5.20
2018-05-26T16:58:52.179Z,5.23
2018-05-26T17:01:21.022Z,5.20
2018-05-26T17:03:47.295Z,7.00
2018-05-26T17:06:13.549Z,5.30
2018-05-26T17:08:39.872Z,5.30
2018-05-26T17:11:06.131Z,5.60
2018-05-26T17:13:32.400Z,6.73
2018-05-26T17:15:58.694Z,5.90
2018-05-26T17:18:25.995Z,6.13
2018-05-26T17:20:52.329Z,5.37
2018-05-26T17:23:18.559Z,7.47
2018-05-26T17:25:44.823Z,8.37
2018-05-26T17:28:11.270Z,6.83
2018-05-26T17:30:37.534Z,6.07
2018-05-26T17:33:03.982Z,6.13
2018-05-26T17:35:30.429Z,6.23
2018-05-26T17:37:56.702Z,5.80
2018-05-26T17:40:23.010Z,6.60
2018-05-26T17:42:49.992Z,8.70
2018-05-26T17:45:16.275Z,7.40
2018-05-26T17:47:42.522Z,13.70
2018-05-26T17:50:08.829Z,9.93
2018-05-26T17:52:35.111Z,7.40
2018-05-26T17:55:02.413Z,6.03
2018-05-26T17:57:28.692Z,6.63
2018-05-26T17:59:56.323Z,9.10
2018-05-26T18:02:23.129Z,7.30
2018-05-26T18:04:49.384Z,13.77
2018-05-26T18:07:15.787Z,7.03
2018-05-26T18:09:41.984Z,8.80
2018-05-26T18:12:08.996Z,6.83
2018-05-26T18:14:35.343Z,6.87
2018-05-26T18:17:01.603Z,12.07
2018-05-26T18:19:27.878Z,9.67
2018-05-26T18:21:54.925Z,7.33
2018-05-26T18:24:21.275Z,11.80
2018-05-26T18:26:47.611Z,9.43
2018-05-26T18:29:14.153Z,21.73
2018-05-26T18:31:40.522Z,9.60
2018-05-26T18:34:06.892Z,10.53
2018-05-26T18:36:33.222Z,14.43
2018-05-26T18:38:59.491Z,10.27
2018-05-26T18:41:25.771Z,8.00
2018-05-26T18:43:52.046Z,7.63
2018-05-26T18:46:18.352Z,8.67
2018-05-26T18:48:45.082Z,8.47
2018-05-26T18:51:11.451Z,11.80
2018-05-26T18:53:37.753Z,10.97
2018-05-26T18:56:04.115Z,10.83
2018-05-26T18:58:30.477Z,7.00
2018-05-26T19:00:56.749Z,7.90
2018-05-26T19:03:23.302Z,8.63
2018-05-26T19:05:49.621Z,7.43
2018-05-26T19:08:15.950Z,35.17
2018-05-26T19:10:42.199Z,13.07
2018-05-26T19:13:08.483Z,7.80
2018-05-26T19:15:34.748Z,7.57
2018-05-26T19:18:01.063Z,9.70
2018-05-26T19:20:28.062Z,7.30
2018-05-26T19:22:57.603Z,14.93
2018-05-26T19:25:23.878Z,11.83
2018-05-26T19:27:50.215Z,13.43
2018-05-26T19:30:16.508Z,9.17
2018-05-26T19:32:42.800Z,10.57
2018-05-26T19:35:10.997Z,9.53
2018-05-26T19:37:38.128Z,7.63
2018-05-26T19:40:04.413Z,9.27
2018-05-26T19:42:30.723Z,8.33
2018-05-26T19:44:57.169Z,15.10
2018-05-26T19:47:23.569Z,10.43
2018-05-26T19:49:49.875Z,10.63
2018-05-26T19:52:16.143Z,10.47
2018-05-26T19:54:43.473Z,8.87
2018-05-26T19:57:10.526Z,10.60
2018-05-26T19:59:37.535Z,9.37
2018-05-26T20:02:04.729Z,11.57
2018-05-26T20:04:31.047Z,11.40
2018-05-26T20:06:57.300Z,13.40
2018-05-26T20:09:23.593Z,10.23
2018-05-26T20:11:49.900Z,12.20
2018-05-26T20:14:16.243Z,12.50
2018-05-26T20:16:42.647Z,11.07
2018-05-26T20:19:09.147Z,14.10
2018-05-26T20:21:35.735Z,14.03
2018-05-26T20:24:02.061Z,14.93
2018-05-26T20:26:28.564Z,13.77
2018-05-26T20:28:55.053Z,13.77
2018-05-26T20:31:21.379Z,12.37
2018-05-26T20:33:47.647Z,15.50
2018-05-26T20:36:14.959Z,16.17
2018-05-26T20:38:41.306Z,11.87
2018-05-26T20:41:07.596Z,14.63
2018-05-26T20:43:33.957Z,12.07
2018-05-26T20:46:00.271Z,11.10
2018-05-26T20:48:26.723Z,18.10
2018-05-26T20:50:53.727Z,10.97
2018-05-26T20:53:19.984Z,12.70
2018-05-26T20:55:46.316Z,14.60
2018-05-26T20:58:12.724Z,10.87
2018-05-26T21:00:39.142Z,12.70
2018-05-26T21:03:06.240Z,22.17
2018-05-26T21:05:32.503Z,15.13
2018-05-26T21:07:58.778Z,12.93
2018-05-26T21:10:25.105Z,12.50
2018-05-26T21:12:51.386Z,14.93
2018-05-26T21:15:17.723Z,17.03
2018-05-26T21:17:44.859Z,13.60
2018-05-26T21:20:11.172Z,17.87
2018-05-26T21:22:37.423Z,18.40
2018-05-26T21:25:03.692Z,21.43
2018-05-26T21:27:29.953Z,14.13
2018-05-26T21:29:56.299Z,13.70
2018-05-26T21:32:22.560Z,12.87
2018-05-26T21:34:49.603Z,16.53
2018-05-26T21:37:15.951Z,15.03
2018-05-26T21:39:43.229Z,12.93
2018-05-26T21:42:09.530Z,14.73
2018-05-26T21:44:36.473Z,18.27
2018-05-26T21:47:02.795Z,12.83
2018-05-26T21:49:30.066Z,12.03
2018-05-26T21:51:56.445Z,14.60
2018-05-26T21:54:22.720Z,16.90
2018-05-26T21:56:49.260Z,13.20
2018-05-26T21:59:16.353Z,10.97
2018-05-26T22:01:42.914Z,11.67
2018-05-26T22:04:14.623Z,11.73
2018-05-26T22:06:40.903Z,15.17
2018-05-26T22:09:07.381Z,13.07
2018-05-26T22:11:33.722Z,13.43
2018-05-26T22:13:59.986Z,12.73
2018-05-26T22:16:27.529Z,13.80
2018-05-26T22:18:53.789Z,15.53
2018-05-26T22:21:20.266Z,17.70
2018-05-26T22:23:46.630Z,15.17
2018-05-26T22:26:13.055Z,17.60
2018-05-26T22:28:39.347Z,30.57
2018-05-26T22:31:05.687Z,24.47
2018-05-26T22:33:32.272Z,15.17
2018-05-26T22:35:58.509Z,17.10
2018-05-26T22:38:24.795Z,15.30
2018-05-26T22:40:51.937Z,13.30
2018-05-26T22:43:18.364Z,16.07
2018-05-26T22:45:44.818Z,15.93
2018-05-26T22:48:11.731Z,16.00
2018-05-26T22:50:39.008Z,14.43
2018-05-26T22:53:05.333Z,15.60
2018-05-26T22:55:31.980Z,18.00
2018-05-26T22:57:58.266Z,18.03
2018-05-26T23:00:25.845Z,16.70
2018-05-26T23:02:53.023Z,16.37
2018-05-26T23:05:20.132Z,15.27
2018-05-26T23:07:47.758Z,16.63
2018-05-26T23:10:14.110Z,21.63
2018-05-26T23:12:41.679Z,16.60
2018-05-26T23:15:08.142Z,23.43
2018-05-26T23:17:34.758Z,15.43
2018-05-26T23:20:01.146Z,14.80
2018-05-26T23:22:27.432Z,16.70
2018-05-26T23:24:53.851Z,16.67
2018-05-26T23:27:20.189Z,20.63
2018-05-26T23:29:46.458Z,16.40
2018-05-26T23:32:12.731Z,17.20
2018-05-26T23:34:39.020Z,14.97
2018-05-26T23:37:05.436Z,16.17
2018-05-26T23:39:31.869Z,16.27
2018-05-26T23:41:58.278Z,18.80
2018-05-26T23:44:25.777Z,20.00
2018-05-26T23:46:52.026Z,21.07
2018-05-26T23:49:19.302Z,18.30
2018-05-26T23:51:46.958Z,18.17
2018-05-26T23:54:13.213Z,19.57
2018-05-26T23:56:39.409Z,18.47
2018-05-26T23:59:05.750Z,23.10
